sensor_id;sensor_type;location;lat;lon;timestamp;P1;durP1;ratioP1;P2;durP2;ratioP2
12312;SDS011;6220;53.580;9.758;2022-08-20T00:01:23;5.37;;;4.90;;
12312;SDS011;6220;53.580;9.758;2022-08-20T00:03:48;5.13;;;4.73;;
12312;SDS011;6220;53.580;9.758;2022-08-20T00:06:16;4.93;;;4.53;;
12312;SDS011;6220;53.580;9.758;2022-08-20T00:08:43;5.30;;;4.87;;
12312;SDS011;6220;53.580;9.758;2022-08-20T00:11:09;5.10;;;4.60;;
12312;SDS011;6220;53.580;9.758;2022-08-20T00:13:49;5.57;;;5.07;;
12312;SDS011;6220;53.580;9.758;2022-08-20T00:16:18;5.67;;;5.17;;
12312;SDS011;6220;53.580;9.758;2022-08-20T00:18:46;6.60;;;4.53;;
12312;SDS011;6220;53.580;9.758;2022-08-20T00:21:12;5.77;;;5.17;;
12312;SDS011;6220;53.580;9.758;2022-08-20T00:23:40;6.57;;;5.23;;
12312;SDS011;6220;53.580;9.758;2022-08-20T00:26:07;5.30;;;4.80;;
12312;SDS011;6220;53.580;9.758;2022-08-20T00:28:33;5.67;;;4.63;;
12312;SDS011;6220;53.580;9.758;2022-08-20T00:31:01;4.63;;;4.23;;
12312;SDS011;6220;53.580;9.758;2022-08-20T00:33:27;5.00;;;4.50;;
12312;SDS011;6220;53.580;9.758;2022-08-20T00:35:54;4.87;;;4.40;;
12312;SDS011;6220;53.580;9.758;2022-08-20T00:38:30;6.03;;;4.10;;
12312;SDS011;6220;53.580;9.758;2022-08-20T00:40:59;4.17;;;3.87;;
12312;SDS011;6220;53.580;9.758;2022-08-20T00:45:52;4.53;;;4.13;;
12312;SDS011;6220;53.580;9.758;2022-08-20T00:48:31;4.30;;;3.90;;
12312;SDS011;6220;53.580;9.758;2022-08-20T00:51:02;4.23;;;3.83;;
12312;SDS011;6220;53.580;9.758;2022-08-20T00:53:32;4.30;;;3.90;;
12312;SDS011;6220;53.580;9.758;2022-08-20T00:55:58;4.50;;;3.90;;
12312;SDS011;6220;53.580;9.758;2022-08-20T00:58:24;4.37;;;3.97;;
12312;SDS011;6220;53.580;9.758;2022-08-20T01:00:51;4.00;;;3.63;;
12312;SDS011;6220;53.580;9.758;2022-08-20T01:03:17;3.90;;;3.60;;
12312;SDS011;6220;53.580;9.758;2022-08-20T01:05:45;4.27;;;3.87;;
12312;SDS011;6220;53.580;9.758;2022-08-20T01:08:14;3.70;;;3.40;;
12312;SDS011;6220;53.580;9.758;2022-08-20T01:10:42;4.10;;;3.70;;
12312;SDS011;6220;53.580;9.758;2022-08-20T01:13:13;4.20;;;3.80;;
12312;SDS011;6220;53.580;9.758;2022-08-20T01:15:42;3.50;;;3.20;;
12312;SDS011;6220;53.580;9.758;2022-08-20T01:18:09;4.07;;;3.63;;
12312;SDS011;6220;53.580;9.758;2022-08-20T01:20:37;4.83;;;3.83;;
12312;SDS011;6220;53.580;9.758;2022-08-20T01:26:05;4.07;;;3.63;;
12312;SDS011;6220;53.580;9.758;2022-08-20T01:28:36;3.30;;;3.00;;
12312;SDS011;6220;53.580;9.758;2022-08-20T01:31:06;3.70;;;3.10;;
12312;SDS011;6220;53.580;9.758;2022-08-20T01:33:33;2.90;;;2.70;;
12312;SDS011;6220;53.580;9.758;2022-08-20T01:35:58;3.87;;;2.93;;
12312;SDS011;6220;53.580;9.758;2022-08-20T01:38:24;3.67;;;3.13;;
12312;SDS011;6220;53.580;9.758;2022-08-20T01:43:22;2.60;;;2.40;;
12312;SDS011;6220;53.580;9.758;2022-08-20T01:45:48;3.20;;;2.90;;
12312;SDS011;6220;53.580;9.758;2022-08-20T01:48:14;3.90;;;2.83;;
12312;SDS011;6220;53.580;9.758;2022-08-20T01:50:40;2.67;;;2.47;;
12312;SDS011;6220;53.580;9.758;2022-08-20T01:53:32;3.00;;;2.80;;
12312;SDS011;6220;53.580;9.758;2022-08-20T01:55:59;3.07;;;2.73;;
12312;SDS011;6220;53.580;9.758;2022-08-20T01:58:26;3.87;;;3.07;;
12312;SDS011;6220;53.580;9.758;2022-08-20T02:00:53;3.40;;;3.10;;
12312;SDS011;6220;53.580;9.758;2022-08-20T02:03:20;3.63;;;2.97;;
12312;SDS011;6220;53.580;9.758;2022-08-20T02:05:45;3.43;;;3.13;;
12312;SDS011;6220;53.580;9.758;2022-08-20T02:08:11;4.40;;;3.07;;
12312;SDS011;6220;53.580;9.758;2022-08-20T02:10:36;4.93;;;3.60;;
12312;SDS011;6220;53.580;9.758;2022-08-20T02:13:03;7.43;;;6.73;;
12312;SDS011;6220;53.580;9.758;2022-08-20T02:15:29;5.20;;;4.43;;
12312;SDS011;6220;53.580;9.758;2022-08-20T02:17:55;5.23;;;4.73;;
12312;SDS011;6220;53.580;9.758;2022-08-20T02:20:22;5.07;;;4.30;;
12312;SDS011;6220;53.580;9.758;2022-08-20T02:22:56;8.30;;;4.67;;
12312;SDS011;6220;53.580;9.758;2022-08-20T02:25:23;6.57;;;5.17;;
12312;SDS011;6220;53.580;9.758;2022-08-20T02:27:51;4.87;;;4.37;;
12312;SDS011;6220;53.580;9.758;2022-08-20T02:30:19;7.23;;;5.00;;
12312;SDS011;6220;53.580;9.758;2022-08-20T02:32:46;5.57;;;5.13;;
12312;SDS011;6220;53.580;9.758;2022-08-20T02:35:12;7.43;;;4.40;;
12312;SDS011;6220;53.580;9.758;2022-08-20T02:37:39;6.37;;;4.20;;
12312;SDS011;6220;53.580;9.758;2022-08-20T02:40:06;4.97;;;4.57;;
12312;SDS011;6220;53.580;9.758;2022-08-20T02:42:34;6.07;;;5.40;;
12312;SDS011;6220;53.580;9.758;2022-08-20T02:45:00;5.73;;;4.93;;
12312;SDS011;6220;53.580;9.758;2022-08-20T02:47:26;7.17;;;6.47;;
12312;SDS011;6220;53.580;9.758;2022-08-20T02:49:52;9.63;;;7.83;;
12312;SDS011;6220;53.580;9.758;2022-08-20T02:52:18;8.47;;;7.53;;
12312;SDS011;6220;53.580;9.758;2022-08-20T02:54:44;9.13;;;7.80;;
12312;SDS011;6220;53.580;9.758;2022-08-20T02:57:13;8.57;;;7.40;;
12312;SDS011;6220;53.580;9.758;2022-08-20T02:59:38;8.23;;;7.40;;
12312;SDS011;6220;53.580;9.758;2022-08-20T03:02:04;8.50;;;7.77;;
12312;SDS011;6220;53.580;9.758;2022-08-20T03:04:29;9.43;;;7.43;;
12312;SDS011;6220;53.580;9.758;2022-08-20T03:06:55;11.50;;;7.27;;
12312;SDS011;6220;53.580;9.758;2022-08-20T03:09:21;7.40;;;6.70;;
12312;SDS011;6220;53.580;9.758;2022-08-20T03:11:46;8.17;;;7.37;;
12312;SDS011;6220;53.580;9.758;2022-08-20T03:14:11;8.77;;;6.90;;
12312;SDS011;6220;53.580;9.758;2022-08-20T03:16:37;8.40;;;7.47;;
12312;SDS011;6220;53.580;9.758;2022-08-20T03:19:02;7.30;;;6.47;;
12312;SDS011;6220;53.580;9.758;2022-08-20T03:21:27;10.63;;;7.40;;
12312;SDS011;6220;53.580;9.758;2022-08-20T03:23:53;9.20;;;8.23;;
12312;SDS011;6220;53.580;9.758;2022-08-20T03:26:18;9.90;;;8.00;;
12312;SDS011;6220;53.580;9.758;2022-08-20T03:28:43;8.97;;;7.77;;
12312;SDS011;6220;53.580;9.758;2022-08-20T03:31:09;8.77;;;7.87;;
12312;SDS011;6220;53.580;9.758;2022-08-20T03:33:35;8.27;;;7.10;;
12312;SDS011;6220;53.580;9.758;2022-08-20T03:36:03;9.03;;;8.07;;
12312;SDS011;6220;53.580;9.758;2022-08-20T03:38:29;9.53;;;7.50;;
12312;SDS011;6220;53.580;9.758;2022-08-20T03:40:55;13.43;;;10.57;;
12312;SDS011;6220;53.580;9.758;2022-08-20T03:43:20;14.47;;;12.97;;
12312;SDS011;6220;53.580;9.758;2022-08-20T03:45:45;11.93;;;10.40;;
12312;SDS011;6220;53.580;9.758;2022-08-20T03:48:13;13.53;;;11.13;;
12312;SDS011;6220;53.580;9.758;2022-08-20T03:50:40;13.83;;;10.17;;
12312;SDS011;6220;53.580;9.758;2022-08-20T03:53:06;10.50;;;9.30;;
12312;SDS011;6220;53.580;9.758;2022-08-20T03:55:33;13.17;;;11.77;;
12312;SDS011;6220;53.580;9.758;2022-08-20T03:57:59;13.83;;;10.63;;
12312;SDS011;6220;53.580;9.758;2022-08-20T04:00:33;14.53;;;11.00;;
12312;SDS011;6220;53.580;9.758;2022-08-20T04:03:01;14.90;;;12.63;;
12312;SDS011;6220;53.580;9.758;2022-08-20T04:05:27;12.77;;;11.47;;
12312;SDS011;6220;53.580;9.758;2022-08-20T04:07:55;17.17;;;11.83;;
12312;SDS011;6220;53.580;9.758;2022-08-20T04:10:22;11.83;;;10.60;;
12312;SDS011;6220;53.580;9.758;2022-08-20T04:12:48;15.40;;;10.77;;
12312;SDS011;6220;53.580;9.758;2022-08-20T04:15:14;16.37;;;12.37;;
12312;SDS011;6220;53.580;9.758;2022-08-20T04:17:42;14.13;;;12.10;;
12312;SDS011;6220;53.580;9.758;2022-08-20T04:20:09;12.27;;;11.07;;
12312;SDS011;6220;53.580;9.758;2022-08-20T04:22:36;13.40;;;11.97;;
12312;SDS011;6220;53.580;9.758;2022-08-20T04:25:02;14.77;;;12.53;;
12312;SDS011;6220;53.580;9.758;2022-08-20T04:27:29;12.40;;;11.13;;
12312;SDS011;6220;53.580;9.758;2022-08-20T04:29:56;13.70;;;12.13;;
12312;SDS011;6220;53.580;9.758;2022-08-20T04:32:27;14.43;;;11.73;;
12312;SDS011;6220;53.580;9.758;2022-08-20T04:34:52;12.43;;;10.20;;
12312;SDS011;6220;53.580;9.758;2022-08-20T04:37:19;13.53;;;11.67;;
12312;SDS011;6220;53.580;9.758;2022-08-20T04:39:45;11.60;;;10.40;;
12312;SDS011;6220;53.580;9.758;2022-08-20T04:42:33;12.20;;;10.97;;
12312;SDS011;6220;53.580;9.758;2022-08-20T04:45:00;16.30;;;10.40;;
12312;SDS011;6220;53.580;9.758;2022-08-20T04:47:25;16.00;;;10.70;;
12312;SDS011;6220;53.580;9.758;2022-08-20T04:49:51;13.83;;;11.67;;
12312;SDS011;6220;53.580;9.758;2022-08-20T04:52:17;11.53;;;10.33;;
12312;SDS011;6220;53.580;9.758;2022-08-20T04:54:42;11.03;;;10.03;;
12312;SDS011;6220;53.580;9.758;2022-08-20T04:57:08;11.67;;;10.53;;
12312;SDS011;6220;53.580;9.758;2022-08-20T04:59:33;11.33;;;10.13;;
12312;SDS011;6220;53.580;9.758;2022-08-20T05:01:58;11.20;;;9.67;;
12312;SDS011;6220;53.580;9.758;2022-08-20T05:04:24;10.93;;;9.77;;
12312;SDS011;6220;53.580;9.758;2022-08-20T05:06:51;12.20;;;9.73;;
12312;SDS011;6220;53.580;9.758;2022-08-20T05:09:16;11.80;;;10.00;;
12312;SDS011;6220;53.580;9.758;2022-08-20T05:11:42;10.90;;;9.80;;
12312;SDS011;6220;53.580;9.758;2022-08-20T05:14:07;11.40;;;10.20;;
12312;SDS011;6220;53.580;9.758;2022-08-20T05:16:33;10.70;;;9.57;;
12312;SDS011;6220;53.580;9.758;2022-08-20T05:19:01;9.57;;;8.57;;
12312;SDS011;6220;53.580;9.758;2022-08-20T05:21:27;11.27;;;8.97;;
12312;SDS011;6220;53.580;9.758;2022-08-20T05:23:52;10.63;;;8.73;;
12312;SDS011;6220;53.580;9.758;2022-08-20T05:26:18;9.30;;;8.40;;
12312;SDS011;6220;53.580;9.758;2022-08-20T05:28:44;13.30;;;10.00;;
12312;SDS011;6220;53.580;9.758;2022-08-20T05:31:09;9.97;;;8.43;;
12312;SDS011;6220;53.580;9.758;2022-08-20T05:33:36;11.27;;;9.43;;
12312;SDS011;6220;53.580;9.758;2022-08-20T05:36:02;12.20;;;10.90;;
12312;SDS011;6220;53.580;9.758;2022-08-20T05:38:30;12.40;;;10.40;;
12312;SDS011;6220;53.580;9.758;2022-08-20T05:40:56;12.00;;;10.40;;
12312;SDS011;6220;53.580;9.758;2022-08-20T05:43:21;11.90;;;10.60;;
12312;SDS011;6220;53.580;9.758;2022-08-20T05:45:47;11.30;;;10.03;;
12312;SDS011;6220;53.580;9.758;2022-08-20T05:48:17;11.10;;;10.07;;
12312;SDS011;6220;53.580;9.758;2022-08-20T05:50:45;10.63;;;9.50;;
12312;SDS011;6220;53.580;9.758;2022-08-20T05:53:13;10.40;;;9.30;;
12312;SDS011;6220;53.580;9.758;2022-08-20T05:55:39;12.10;;;10.40;;
12312;SDS011;6220;53.580;9.758;2022-08-20T05:58:05;10.77;;;9.70;;
12312;SDS011;6220;53.580;9.758;2022-08-20T06:00:32;13.40;;;12.00;;
12312;SDS011;6220;53.580;9.758;2022-08-20T06:02:59;13.07;;;11.77;;
12312;SDS011;6220;53.580;9.758;2022-08-20T06:05:43;11.73;;;10.40;;
12312;SDS011;6220;53.580;9.758;2022-08-20T06:08:09;12.93;;;11.13;;
12312;SDS011;6220;53.580;9.758;2022-08-20T06:10:36;12.97;;;11.40;;
12312;SDS011;6220;53.580;9.758;2022-08-20T06:13:02;12.27;;;11.07;;
12312;SDS011;6220;53.580;9.758;2022-08-20T06:15:28;13.83;;;11.40;;
12312;SDS011;6220;53.580;9.758;2022-08-20T06:17:54;12.47;;;11.27;;
12312;SDS011;6220;53.580;9.758;2022-08-20T06:20:19;12.40;;;11.27;;
12312;SDS011;6220;53.580;9.758;2022-08-20T06:22:44;12.53;;;11.33;;
12312;SDS011;6220;53.580;9.758;2022-08-20T06:25:10;13.00;;;11.60;;
12312;SDS011;6220;53.580;9.758;2022-08-20T06:27:39;14.63;;;13.20;;
12312;SDS011;6220;53.580;9.758;2022-08-20T06:30:06;15.00;;;13.50;;
12312;SDS011;6220;53.580;9.758;2022-08-20T06:32:33;14.53;;;11.97;;
12312;SDS011;6220;53.580;9.758;2022-08-20T06:35:02;14.40;;;12.50;;
12312;SDS011;6220;53.580;9.758;2022-08-20T06:37:30;12.40;;;10.37;;
12312;SDS011;6220;53.580;9.758;2022-08-20T06:40:05;12.93;;;11.13;;
12312;SDS011;6220;53.580;9.758;2022-08-20T06:42:34;11.90;;;10.70;;
12312;SDS011;6220;53.580;9.758;2022-08-20T06:45:00;15.07;;;12.10;;
12312;SDS011;6220;53.580;9.758;2022-08-20T06:47:29;13.37;;;10.60;;
12312;SDS011;6220;53.580;9.758;2022-08-20T06:49:55;11.40;;;8.77;;
12312;SDS011;6220;53.580;9.758;2022-08-20T06:52:20;11.13;;;10.03;;
12312;SDS011;6220;53.580;9.758;2022-08-20T06:54:46;9.87;;;8.87;;
12312;SDS011;6220;53.580;9.758;2022-08-20T06:57:12;10.17;;;9.27;;
12312;SDS011;6220;53.580;9.758;2022-08-20T06:59:37;11.43;;;10.00;;
12312;SDS011;6220;53.580;9.758;2022-08-20T07:02:03;13.00;;;11.27;;
12312;SDS011;6220;53.580;9.758;2022-08-20T07:04:29;10.27;;;9.27;;
12312;SDS011;6220;53.580;9.758;2022-08-20T07:06:54;10.57;;;9.47;;
12312;SDS011;6220;53.580;9.758;2022-08-20T07:09:21;11.47;;;9.47;;
12312;SDS011;6220;53.580;9.758;2022-08-20T07:11:47;12.80;;;8.90;;
12312;SDS011;6220;53.580;9.758;2022-08-20T07:14:14;10.03;;;9.00;;
12312;SDS011;6220;53.580;9.758;2022-08-20T07:16:41;8.83;;;7.90;;
12312;SDS011;6220;53.580;9.758;2022-08-20T07:19:06;10.47;;;9.47;;
12312;SDS011;6220;53.580;9.758;2022-08-20T07:21:32;9.10;;;8.17;;
12312;SDS011;6220;53.580;9.758;2022-08-20T07:23:58;10.17;;;7.80;;
12312;SDS011;6220;53.580;9.758;2022-08-20T07:26:23;9.90;;;8.60;;
12312;SDS011;6220;53.580;9.758;2022-08-20T07:28:48;7.90;;;7.10;;
12312;SDS011;6220;53.580;9.758;2022-08-20T07:31:14;10.03;;;6.70;;
12312;SDS011;6220;53.580;9.758;2022-08-20T07:33:58;6.67;;;5.37;;
12312;SDS011;6220;53.580;9.758;2022-08-20T07:36:24;7.60;;;3.97;;
12312;SDS011;6220;53.580;9.758;2022-08-20T07:38:49;7.27;;;4.20;;
12312;SDS011;6220;53.580;9.758;2022-08-20T07:41:16;6.77;;;3.90;;
12312;SDS011;6220;53.580;9.758;2022-08-20T07:43:43;5.97;;;3.70;;
12312;SDS011;6220;53.580;9.758;2022-08-20T07:46:10;5.17;;;3.10;;
12312;SDS011;6220;53.580;9.758;2022-08-20T07:48:38;6.73;;;3.53;;
12312;SDS011;6220;53.580;9.758;2022-08-20T07:51:04;5.70;;;3.67;;
12312;SDS011;6220;53.580;9.758;2022-08-20T07:53:31;5.60;;;3.67;;
12312;SDS011;6220;53.580;9.758;2022-08-20T07:55:58;4.90;;;3.43;;
12312;SDS011;6220;53.580;9.758;2022-08-20T07:58:25;5.00;;;3.10;;
12312;SDS011;6220;53.580;9.758;2022-08-20T08:00:50;4.87;;;3.30;;
12312;SDS011;6220;53.580;9.758;2022-08-20T08:03:16;6.83;;;3.10;;
12312;SDS011;6220;53.580;9.758;2022-08-20T08:05:43;4.60;;;3.10;;
12312;SDS011;6220;53.580;9.758;2022-08-20T08:08:11;3.83;;;2.90;;
12312;SDS011;6220;53.580;9.758;2022-08-20T08:10:37;5.80;;;3.50;;
12312;SDS011;6220;53.580;9.758;2022-08-20T08:13:06;9.17;;;3.10;;
12312;SDS011;6220;53.580;9.758;2022-08-20T08:15:34;6.20;;;3.20;;
12312;SDS011;6220;53.580;9.758;2022-08-20T08:18:05;5.20;;;3.20;;
12312;SDS011;6220;53.580;9.758;2022-08-20T08:20:34;6.23;;;3.20;;
12312;SDS011;6220;53.580;9.758;2022-08-20T08:23:02;4.70;;;3.13;;
12312;SDS011;6220;53.580;9.758;2022-08-20T08:25:28;5.93;;;3.20;;
12312;SDS011;6220;53.580;9.758;2022-08-20T08:27:53;5.23;;;3.00;;
12312;SDS011;6220;53.580;9.758;2022-08-20T08:30:19;4.57;;;2.93;;
12312;SDS011;6220;53.580;9.758;2022-08-20T08:32:44;4.20;;;2.67;;
12312;SDS011;6220;53.580;9.758;2022-08-20T08:35:29;4.87;;;2.70;;
12312;SDS011;6220;53.580;9.758;2022-08-20T08:37:58;5.97;;;2.63;;
12312;SDS011;6220;53.580;9.758;2022-08-20T08:40:26;5.07;;;2.80;;
12312;SDS011;6220;53.580;9.758;2022-08-20T08:42:53;6.23;;;2.43;;
12312;SDS011;6220;53.580;9.758;2022-08-20T08:45:22;6.97;;;2.60;;
12312;SDS011;6220;53.580;9.758;2022-08-20T08:47:49;9.77;;;2.70;;
12312;SDS011;6220;53.580;9.758;2022-08-20T08:50:25;7.27;;;2.97;;
12312;SDS011;6220;53.580;9.758;2022-08-20T08:52:54;9.13;;;2.87;;
12312;SDS011;6220;53.580;9.758;2022-08-20T08:55:24;6.70;;;2.67;;
12312;SDS011;6220;53.580;9.758;2022-08-20T08:57:50;5.73;;;2.90;;
12312;SDS011;6220;53.580;9.758;2022-08-20T09:00:18;8.43;;;3.30;;
12312;SDS011;6220;53.580;9.758;2022-08-20T09:05:29;7.07;;;2.73;;
12312;SDS011;6220;53.580;9.758;2022-08-20T09:07:59;10.70;;;3.33;;
12312;SDS011;6220;53.580;9.758;2022-08-20T09:10:26;4.83;;;2.43;;
12312;SDS011;6220;53.580;9.758;2022-08-20T09:12:52;8.53;;;2.70;;
12312;SDS011;6220;53.580;9.758;2022-08-20T09:15:19;6.50;;;3.00;;
12312;SDS011;6220;53.580;9.758;2022-08-20T09:17:45;5.40;;;2.50;;
12312;SDS011;6220;53.580;9.758;2022-08-20T09:20:10;5.40;;;2.70;;
12312;SDS011;6220;53.580;9.758;2022-08-20T09:22:36;6.50;;;2.83;;
12312;SDS011;6220;53.580;9.758;2022-08-20T09:25:01;7.53;;;2.60;;
12312;SDS011;6220;53.580;9.758;2022-08-20T09:27:27;8.20;;;2.87;;
12312;SDS011;6220;53.580;9.758;2022-08-20T09:29:53;6.43;;;2.63;;
12312;SDS011;6220;53.580;9.758;2022-08-20T09:32:19;10.70;;;3.33;;
12312;SDS011;6220;53.580;9.758;2022-08-20T09:34:47;11.67;;;3.07;;
12312;SDS011;6220;53.580;9.758;2022-08-20T09:37:20;10.43;;;2.93;;
12312;SDS011;6220;53.580;9.758;2022-08-20T09:39:47;6.50;;;2.53;;
12312;SDS011;6220;53.580;9.758;2022-08-20T09:42:14;5.43;;;2.80;;
12312;SDS011;6220;53.580;9.758;2022-08-20T09:44:44;7.20;;;2.60;;
12312;SDS011;6220;53.580;9.758;2022-08-20T09:47:10;9.03;;;2.77;;
12312;SDS011;6220;53.580;9.758;2022-08-20T09:49:35;6.27;;;2.67;;
12312;SDS011;6220;53.580;9.758;2022-08-20T09:52:01;9.83;;;3.07;;
12312;SDS011;6220;53.580;9.758;2022-08-20T09:54:27;10.33;;;2.73;;
12312;SDS011;6220;53.580;9.758;2022-08-20T09:56:57;8.37;;;2.77;;
12312;SDS011;6220;53.580;9.758;2022-08-20T09:59:24;8.30;;;2.80;;
12312;SDS011;6220;53.580;9.758;2022-08-20T10:01:49;9.50;;;2.80;;
12312;SDS011;6220;53.580;9.758;2022-08-20T10:04:15;9.90;;;3.03;;
12312;SDS011;6220;53.580;9.758;2022-08-20T10:06:40;7.80;;;2.77;;
12312;SDS011;6220;53.580;9.758;2022-08-20T10:09:06;8.43;;;2.97;;
12312;SDS011;6220;53.580;9.758;2022-08-20T10:11:31;7.00;;;2.40;;
12312;SDS011;6220;53.580;9.758;2022-08-20T10:13:57;8.07;;;2.90;;
12312;SDS011;6220;53.580;9.758;2022-08-20T10:16:22;7.83;;;2.77;;
12312;SDS011;6220;53.580;9.758;2022-08-20T10:18:48;7.63;;;2.80;;
12312;SDS011;6220;53.580;9.758;2022-08-20T10:21:13;7.00;;;2.90;;
12312;SDS011;6220;53.580;9.758;2022-08-20T10:23:39;8.60;;;2.83;;
12312;SDS011;6220;53.580;9.758;2022-08-20T10:26:06;6.90;;;2.90;;
12312;SDS011;6220;53.580;9.758;2022-08-20T10:28:32;6.37;;;2.77;;
12312;SDS011;6220;53.580;9.758;2022-08-20T10:30:58;5.83;;;2.37;;
12312;SDS011;6220;53.580;9.758;2022-08-20T10:33:23;9.83;;;2.80;;
12312;SDS011;6220;53.580;9.758;2022-08-20T10:35:48;4.87;;;2.43;;
12312;SDS011;6220;53.580;9.758;2022-08-20T10:38:14;7.33;;;2.43;;
12312;SDS011;6220;53.580;9.758;2022-08-20T10:40:39;6.03;;;2.57;;
12312;SDS011;6220;53.580;9.758;2022-08-20T10:43:05;7.47;;;2.60;;
12312;SDS011;6220;53.580;9.758;2022-08-20T10:45:30;6.67;;;2.37;;
12312;SDS011;6220;53.580;9.758;2022-08-20T10:47:59;8.97;;;2.80;;
12312;SDS011;6220;53.580;9.758;2022-08-20T10:50:24;9.20;;;2.67;;
12312;SDS011;6220;53.580;9.758;2022-08-20T10:52:50;7.43;;;2.73;;
12312;SDS011;6220;53.580;9.758;2022-08-20T10:55:15;6.97;;;2.97;;
12312;SDS011;6220;53.580;9.758;2022-08-20T10:57:41;6.27;;;2.73;;
12312;SDS011;6220;53.580;9.758;2022-08-20T11:00:07;8.13;;;2.50;;
12312;SDS011;6220;53.580;9.758;2022-08-20T11:02:36;10.27;;;3.10;;
12312;SDS011;6220;53.580;9.758;2022-08-20T11:05:01;6.77;;;2.50;;
12312;SDS011;6220;53.580;9.758;2022-08-20T11:07:34;8.03;;;2.53;;
12312;SDS011;6220;53.580;9.758;2022-08-20T11:10:02;6.43;;;2.30;;
12312;SDS011;6220;53.580;9.758;2022-08-20T11:12:28;7.23;;;2.60;;
12312;SDS011;6220;53.580;9.758;2022-08-20T11:14:53;6.63;;;2.63;;
12312;SDS011;6220;53.580;9.758;2022-08-20T11:17:23;6.83;;;2.23;;
12312;SDS011;6220;53.580;9.758;2022-08-20T11:19:53;8.53;;;2.17;;
12312;SDS011;6220;53.580;9.758;2022-08-20T11:22:20;8.27;;;2.40;;
12312;SDS011;6220;53.580;9.758;2022-08-20T11:24:45;7.93;;;2.40;;
12312;SDS011;6220;53.580;9.758;2022-08-20T11:27:14;4.63;;;2.27;;
12312;SDS011;6220;53.580;9.758;2022-08-20T11:29:48;7.33;;;2.30;;
12312;SDS011;6220;53.580;9.758;2022-08-20T11:32:13;5.63;;;2.20;;
12312;SDS011;6220;53.580;9.758;2022-08-20T11:34:38;5.13;;;2.07;;
12312;SDS011;6220;53.580;9.758;2022-08-20T11:37:04;7.70;;;2.60;;
12312;SDS011;6220;53.580;9.758;2022-08-20T11:39:29;6.67;;;2.20;;
12312;SDS011;6220;53.580;9.758;2022-08-20T11:41:54;5.20;;;1.80;;
12312;SDS011;6220;53.580;9.758;2022-08-20T11:44:20;6.90;;;2.20;;
12312;SDS011;6220;53.580;9.758;2022-08-20T11:46:45;3.30;;;1.60;;
12312;SDS011;6220;53.580;9.758;2022-08-20T11:49:11;5.17;;;1.90;;
12312;SDS011;6220;53.580;9.758;2022-08-20T11:51:36;7.90;;;2.33;;
12312;SDS011;6220;53.580;9.758;2022-08-20T11:54:02;6.43;;;2.37;;
12312;SDS011;6220;53.580;9.758;2022-08-20T11:56:28;5.50;;;2.00;;
12312;SDS011;6220;53.580;9.758;2022-08-20T11:58:54;6.67;;;2.23;;
12312;SDS011;6220;53.580;9.758;2022-08-20T12:01:19;8.40;;;2.20;;
12312;SDS011;6220;53.580;9.758;2022-08-20T12:03:44;7.73;;;2.27;;
12312;SDS011;6220;53.580;9.758;2022-08-20T12:06:10;5.40;;;1.97;;
12312;SDS011;6220;53.580;9.758;2022-08-20T12:08:35;7.47;;;2.00;;
12312;SDS011;6220;53.580;9.758;2022-08-20T12:11:01;4.50;;;1.60;;
12312;SDS011;6220;53.580;9.758;2022-08-20T12:13:29;6.03;;;1.57;;
12312;SDS011;6220;53.580;9.758;2022-08-20T12:15:56;6.63;;;1.70;;
12312;SDS011;6220;53.580;9.758;2022-08-20T12:18:22;6.97;;;1.80;;
12312;SDS011;6220;53.580;9.758;2022-08-20T12:20:47;8.30;;;1.57;;
12312;SDS011;6220;53.580;9.758;2022-08-20T12:23:13;6.23;;;2.60;;
12312;SDS011;6220;53.580;9.758;2022-08-20T12:25:38;4.37;;;1.47;;
12312;SDS011;6220;53.580;9.758;2022-08-20T12:28:04;4.33;;;1.60;;
12312;SDS011;6220;53.580;9.758;2022-08-20T12:30:30;6.10;;;1.80;;
12312;SDS011;6220;53.580;9.758;2022-08-20T12:32:56;5.40;;;1.60;;
12312;SDS011;6220;53.580;9.758;2022-08-20T12:35:22;3.97;;;1.57;;
12312;SDS011;6220;53.580;9.758;2022-08-20T12:37:48;5.23;;;1.70;;
12312;SDS011;6220;53.580;9.758;2022-08-20T12:40:15;4.70;;;1.77;;
12312;SDS011;6220;53.580;9.758;2022-08-20T12:42:42;7.83;;;2.10;;
12312;SDS011;6220;53.580;9.758;2022-08-20T12:45:08;7.00;;;1.90;;
12312;SDS011;6220;53.580;9.758;2022-08-20T12:47:35;6.20;;;2.00;;
12312;SDS011;6220;53.580;9.758;2022-08-20T12:50:12;5.83;;;1.97;;
12312;SDS011;6220;53.580;9.758;2022-08-20T12:52:40;6.93;;;1.90;;
12312;SDS011;6220;53.580;9.758;2022-08-20T12:55:06;4.90;;;1.93;;
12312;SDS011;6220;53.580;9.758;2022-08-20T13:00:00;4.63;;;1.80;;
12312;SDS011;6220;53.580;9.758;2022-08-20T13:02:33;7.43;;;1.90;;
12312;SDS011;6220;53.580;9.758;2022-08-20T13:04:59;6.77;;;2.00;;
12312;SDS011;6220;53.580;9.758;2022-08-20T13:07:24;8.13;;;2.20;;
12312;SDS011;6220;53.580;9.758;2022-08-20T13:09:49;7.47;;;2.20;;
12312;SDS011;6220;53.580;9.758;2022-08-20T13:12:15;6.23;;;1.90;;
12312;SDS011;6220;53.580;9.758;2022-08-20T13:14:41;10.23;;;2.37;;
12312;SDS011;6220;53.580;9.758;2022-08-20T13:17:06;6.37;;;1.80;;
12312;SDS011;6220;53.580;9.758;2022-08-20T13:19:32;3.77;;;1.97;;
12312;SDS011;6220;53.580;9.758;2022-08-20T13:21:58;4.97;;;1.90;;
12312;SDS011;6220;53.580;9.758;2022-08-20T13:24:24;6.50;;;1.60;;
12312;SDS011;6220;53.580;9.758;2022-08-20T13:26:50;5.53;;;1.83;;
12312;SDS011;6220;53.580;9.758;2022-08-20T13:29:15;7.57;;;1.97;;
12312;SDS011;6220;53.580;9.758;2022-08-20T13:31:41;6.00;;;2.17;;
12312;SDS011;6220;53.580;9.758;2022-08-20T13:34:07;7.23;;;2.17;;
12312;SDS011;6220;53.580;9.758;2022-08-20T13:36:33;6.70;;;2.73;;
12312;SDS011;6220;53.580;9.758;2022-08-20T13:38:59;4.10;;;1.47;;
12312;SDS011;6220;53.580;9.758;2022-08-20T13:41:24;7.50;;;2.20;;
12312;SDS011;6220;53.580;9.758;2022-08-20T13:43:50;7.30;;;1.87;;
12312;SDS011;6220;53.580;9.758;2022-08-20T13:46:15;6.20;;;1.87;;
12312;SDS011;6220;53.580;9.758;2022-08-20T13:48:41;5.47;;;2.17;;
12312;SDS011;6220;53.580;9.758;2022-08-20T13:51:07;8.00;;;2.00;;
12312;SDS011;6220;53.580;9.758;2022-08-20T13:53:32;2.93;;;1.50;;
12312;SDS011;6220;53.580;9.758;2022-08-20T13:55:57;6.13;;;2.13;;
12312;SDS011;6220;53.580;9.758;2022-08-20T13:58:23;5.47;;;1.73;;
12312;SDS011;6220;53.580;9.758;2022-08-20T14:00:48;4.53;;;1.50;;
12312;SDS011;6220;53.580;9.758;2022-08-20T14:03:14;6.70;;;1.73;;
12312;SDS011;6220;53.580;9.758;2022-08-20T14:05:40;6.07;;;2.53;;
12312;SDS011;6220;53.580;9.758;2022-08-20T14:08:06;4.40;;;1.67;;
12312;SDS011;6220;53.580;9.758;2022-08-20T14:10:36;4.47;;;1.67;;
12312;SDS011;6220;53.580;9.758;2022-08-20T14:13:03;6.37;;;1.90;;
12312;SDS011;6220;53.580;9.758;2022-08-20T14:15:30;3.17;;;1.50;;
12312;SDS011;6220;53.580;9.758;2022-08-20T14:17:56;6.40;;;1.90;;
12312;SDS011;6220;53.580;9.758;2022-08-20T14:20:24;5.00;;;1.73;;
12312;SDS011;6220;53.580;9.758;2022-08-20T14:22:51;4.97;;;1.70;;
12312;SDS011;6220;53.580;9.758;2022-08-20T14:25:17;4.93;;;1.60;;
12312;SDS011;6220;53.580;9.758;2022-08-20T14:27:44;4.53;;;1.80;;
12312;SDS011;6220;53.580;9.758;2022-08-20T14:30:11;9.50;;;1.53;;
12312;SDS011;6220;53.580;9.758;2022-08-20T14:32:39;5.17;;;1.43;;
12312;SDS011;6220;53.580;9.758;2022-08-20T14:35:05;2.73;;;1.50;;
12312;SDS011;6220;53.580;9.758;2022-08-20T14:37:32;4.60;;;1.50;;
12312;SDS011;6220;53.580;9.758;2022-08-20T14:39:59;4.27;;;1.53;;
12312;SDS011;6220;53.580;9.758;2022-08-20T14:42:26;3.03;;;1.60;;
12312;SDS011;6220;53.580;9.758;2022-08-20T14:44:53;5.53;;;1.50;;
12312;SDS011;6220;53.580;9.758;2022-08-20T14:47:23;3.77;;;1.57;;
12312;SDS011;6220;53.580;9.758;2022-08-20T14:49:59;7.97;;;1.70;;
12312;SDS011;6220;53.580;9.758;2022-08-20T14:52:29;3.67;;;1.43;;
12312;SDS011;6220;53.580;9.758;2022-08-20T14:54:55;5.77;;;1.77;;
12312;SDS011;6220;53.580;9.758;2022-08-20T14:57:21;3.83;;;1.60;;
12312;SDS011;6220;53.580;9.758;2022-08-20T14:59:47;6.60;;;2.10;;
12312;SDS011;6220;53.580;9.758;2022-08-20T15:02:13;5.30;;;1.63;;
12312;SDS011;6220;53.580;9.758;2022-08-20T15:04:41;6.10;;;4.57;;
12312;SDS011;6220;53.580;9.758;2022-08-20T15:07:12;7.03;;;1.60;;